x

West Washington - 300nm West Of Aberdeen, Wa (46005) Wave Buoy

10:50am - Tue 21st Apr 2015 All times are UTC.

  • Sig Wave height 9.8ft
  • Swell Direction
  • Peak Period 14s
  • Average Period 7s
  • Wind
    22mph, 29mph gusts
  • Sea Temp 53°f
  • Air Temp 50°f
  • Sea Pressure 1020.7mb

More Historic Weather Station data

Upgrade to MSW Pro to gain access to the past 30 days of data for over 8000 Wavebouys and Weather Stations around the globe.

Join Pro

Comparision Forecast

View Surf forecast
   
Tue 04/21 10:50am 10ft 14s 7s 22 29 mph 1020.7mb 53f 50f
9:50am 10ft 14s 8s 22 27 mph 1020.2mb 53f 50f
8:50am 9ft 13s 7s 25 29 mph 1019.8mb 53f 50f
7:50am 9ft 15s 7s 22 27 mph 1019.5mb 53f 51f
6:50am 8ft 14s 7s 20 25 mph 1019.4mb 53f 51f
5:50am 8ft 13s 7s 20 22 mph 1019.2mb 53f 51f
4:50am 8ft 13s 8s 20 25 mph 1018.8mb 54f 51f
3:50am 7ft 12s 6s 20 25 mph 1018.1mb 54f 51f
2:50am 7.5ft 12s 7s 20 25 mph 1017.6mb 54f 52f
1:50am 7ft 11s 7s 18 22 mph 1017.7mb 54f 52f
12:50am 7ft 12s 7s 20 22 mph 1017.4mb 54f 52f
Mon 04/20 11:50pm 7ft 11s 8s 18 20 mph 1017.4mb 54f 52f
10:50pm 7ft 9s 8s 18 22 mph 1017.5mb 54f 52f
9:50pm 7.5ft 12s 9s 11 13 mph 1017.6mb 54f 53f
8:50pm 7ft 12s 9s 11 13 mph 1017.8mb 54f 53f
7:50pm 8.5ft 13s 10s 9 11 mph 1018.1mb 54f 54f
6:50pm 7.5ft 12s 10s 9
mph
1018.3mb 54f 54f
5:50pm 7ft 13s 9s 7 9 mph 1018.3mb 54f 54f
4:50pm 7ft 13s 9s 7 9 mph 1018.5mb 54f 54f
3:50pm 7.5ft 12s 10s 7 9 mph 1018.9mb 54f 53f
2:50pm 7ft 13s 10s 7 9 mph 1019mb 54f 52f
1:50pm 7ft 13s 9s 7 11 mph 1019.1mb 54f 51f
12:50pm 7ft 13s 9s 9 13 mph 1019.2mb 54f 49f
11:50am 8ft 14s 10s 11 13 mph 1019.3mb 54f 50f
10:50am 7ft 13s 9s 9 11 mph 1019.5mb 54f 51f
9:50am 7ft 13s 9s 9 11 mph 1020.1mb 54f 50f
8:50am 7ft 13s 9s 9 11 mph 1020.4mb 54f 51f
7:50am 7ft 14s 9s 11 13 mph 1020.9mb 54f 52f
6:50am 7.5ft 13s 9s 4 7 mph 1021mb 54f 51f
5:50am 7ft 12s 9s 7 9 mph 1021.9mb 54f 52f
4:50am 7ft 12s 9s 7 9 mph 1022.2mb 54f 52f
3:50am 8ft 11s 9s 9 11 mph 1022.3mb 54f 52f
2:50am 7.5ft 12s 9s 11 13 mph 1022.8mb 54f 53f
1:50am 8ft 13s 9s 11 13 mph 1023.2mb 54f 52f
12:50am 6.5ft 13s 8s 9 13 mph 1023.7mb 54f 52f
Sun 04/19 11:50pm 7ft 13s 9s 11 13 mph 1024.1mb 54f 52f
10:50pm 7.5ft 13s 9s 9 11 mph 1024.6mb 54f 52f
9:50pm 7.5ft 13s 9s 11 13 mph 1025.2mb 54f 52f
8:50pm 6ft 14s 8s 11 16 mph 1025.7mb 54f 52f
7:50pm 7ft 13s 9s 11 16 mph 1026.3mb 54f 51f
6:50pm 7ft 13s 9s 11 13 mph 1026.9mb 54f 51f
5:50pm 6.5ft 13s 8s 9 11 mph 1027.3mb 53f 52f
4:50pm 6.5ft 12s 9s 9 11 mph 1027.5mb 53f 51f
3:50pm 6.5ft 13s 8s 9 11 mph 1027.9mb 53f 51f
2:50pm 6.5ft 11s 8s 9 11 mph 1028.1mb 53f 51f
1:50pm 6ft 12s 8s 9 13 mph 1027.9mb 53f 51f
12:50pm 6ft 13s 7s 11 13 mph 1027.9mb 53f 51f
11:50am 5.5ft 14s 7s 11 13 mph 1028.2mb 53f 50f
10:50am 5.5ft 11s 7s 11 13 mph 1028.5mb 53f 50f
9:50am 5ft 10s 7s 11 13 mph 1028.7mb 53f 50f
8:50am 5ft 11s 6s 11 13 mph 1029.2mb 53f 50f
7:50am 4.5ft 10s 6s 11 13 mph 1029.6mb 53f 50f
6:50am 4.5ft 11s 6s 11 13 mph 1029.8mb 53f 50f
5:50am 5ft 12s 6s 11 13 mph 1030.2mb 53f 50f
4:50am 4.5ft 11s 6s 11 13 mph 1030.4mb 53f 50f
3:50am 5ft 11s 6s 13 16 mph 1030.4mb 54f 50f
2:50am 5ft 11s 6s 13 16 mph 1030.8mb 54f 50f
1:50am 5.5ft 9s 7s 11 13 mph 1031mb 54f 50f
12:50am 5.5ft 7s 7s 11 13 mph 1031.6mb 54f 50f
Sat 04/18 11:50pm 6ft 11s 7s 11 13 mph 1032mb 54f 50f
10:50pm 5.5ft 12s 7s 9 13 mph 1032.3mb 54f 50f
9:50pm 6ft 11s 7s 11 13 mph 1032.6mb 53f 50f
8:50pm 5.5ft 11s 7s 11 13 mph 1032.8mb 53f 50f
7:50pm 6ft 12s 7s 11 13 mph 1033.2mb 53f 50f
6:50pm 6ft 12s 7s 11 16 mph 1033.4mb 53f 50f
5:50pm 6ft 11s 7s 11 16 mph 1033.4mb 53f 50f
4:50pm 6ft 11s 7s 11 13 mph 1033.5mb 53f 50f
3:50pm 6ft 11s 7s 11 13 mph 1033.4mb 53f 50f
2:50pm 6ft 12s 7s 11 16 mph 1033.2mb 53f 49f
1:50pm 6ft 12s 7s 11 16 mph 1033mb 53f 49f
12:50pm 7ft 12s 8s 13 18 mph 1032.9mb 53f 50f
11:50am 6ft 11s 7s 13 16 mph 1032.8mb 53f 50f
10:50am 6ft 11s 7s 13 18 mph 1032.9mb 53f 50f
9:50am 6.5ft 13s 7s 11 16 mph 1033mb 53f 50f
8:50am 7.5ft 12s 8s 11 16 mph 1033.4mb 53f 50f
7:50am 6.5ft 13s 7s 11 16 mph 1033.2mb 53f 50f
6:50am 7ft 12s 7s 11 13 mph 1033.2mb 53f 50f
5:50am 7ft 12s 8s 13 16 mph 1033.2mb 53f 51f
4:50am 7ft 13s 7s 13 16 mph 1033.2mb 53f 51f
3:50am 8ft 13s 8s 13 16 mph 1032.6mb 53f 51f
2:50am 8ft 13s 8s 13 16 mph 1032.3mb 53f 51f
1:50am 8.5ft 13s 8s 11 13 mph 1032.3mb 53f 51f
12:50am 9ft 14s 8s 13 18 mph 1032.2mb 53f 51f
Fri 04/17 11:50pm 9ft 13s 8s 11 13 mph 1032.2mb 53f 51f
10:50pm 8.5ft 14s 8s 11 13 mph 1032.4mb 53f 51f
9:50pm 9ft 12s 8s 11 13 mph 1032.3mb 53f 51f
8:50pm 9ft 14s 7s 13 16 mph 1032.2mb 53f 51f
7:50pm 10ft 14s 8s 16 18 mph 1032mb 53f 50f
6:50pm 9ft 14s 8s 18 20 mph 1031.3mb 53f 50f
5:50pm 8ft 13s 7s 20 22 mph 1030.9mb 53f 50f
4:50pm 9ft 15s 7s 20 25 mph 1030.2mb 53f 50f
3:50pm 9ft 15s 8s 18 22 mph 1030mb 53f 50f
2:50pm 11ft 14s 8s 20 25 mph 1029.3mb 53f 49f
1:50pm 10ft 15s 8s 20 25 mph 1028.5mb 53f 50f
12:50pm 10ft 15s 8s 20 29 mph 1027.8mb 53f 50f